Impacts TAF Board INFO
FOR SITUATIONAL AWARENESS. NOT TO BE USED FOR FLIGHT PLANNING PURPOSES.
IDs:

KSEA - Seattle-Tacoma Intl, WA, US

Issued at 0301 UTC 18 Oct 2017
Updated at 0347 UTC 18 Oct 2017
Potential Impact None Slight Moderate High
Time0253Z 18/04Z 18/05Z 18/06Z 18/07Z 18/08Z 18/09Z 18/10Z 18/11Z 18/12Z 18/13Z 18/14Z 18/15Z 18/16Z>>
Type OBS PRVL PRVL PRVL PRVL PRVL PRVL PRVL PRVL PRVL PRVL PRVL PRVL PRVL
VIS 10 >6 >6 >6 >6 >6 >6 >6 >6 >6 >6 >6 >6 >6
CIG 160 150 150 150 150 150 150 150 150 40 40 40 40 30
Cover OVC OVC OVC OVC OVC OVC OVC OVC OVC OVC OVC OVC OVC OVC
FltCat VFR VFR VFR VFR VFR VFR VFR VFR VFR VFR VFR VFR VFR MVFR
WX -- -- -- -- -- -- -- -- -- -- -- -- -- VCSH
WDir 80 130 130 130 130 130 130 130 130 140 140 140 140 150
WSpd 8 6 6 6 6 6 6 6 6 10 10 10 10 12
WGst -- -- -- -- -- -- -- -- -- -- -- -- -- --

Raw TAF
KSEA 180301Z 1803/1906 13006KT P6SM SCT060 OVC150
  FM181200 14010KT P6SM BKN040 OVC100
  FM181600 15012KT P6SM VCSH BKN030 OVC050
  FM181800 16012G20KT P6SM -RA OVC030
  FM182100 18020G30KT P6SM -RA OVC025


Raw METAR
KSEA 180253Z 08008KT 10SM SCT060 OVC160 12/04 A3011 RMK AO2 SLP202 T01220044 58003
KSEA 180153Z 13005KT 10SM FEW030 FEW060 OVC170 13/04 A3012 RMK AO2 SLP207 T01280044
KSEA 180053Z 21008KT 10SM SCT030 BKN180 13/05 A3012 RMK AO2 SLP204 T01330050

METAR Board
Radar Display
Forecast Discussion

FOR SITUATIONAL AWARENESS. NOT TO BE USED FOR FLIGHT PLANNING PURPOSES.